Time;durP1;ratioP1;P1;durP2;ratioP2;P2;SDS_P1;SDS_P2;PMS_P1;PMS_P2;Temp;Humidity;BMP_temperature;BMP_pressure;BME280_temperature;BME280_humidity;BME280_pressure;Samples;Min_cycle;Max_cycle;Signal;HPM_P1;HPM_P2
2022/08/17 00:00:59;;;;;;;4.60;4.20;;;25.50;57.80;;;;;;5129199;28;20114;-66
2022/08/17 00:03:37;;;;;;;3.83;3.63;;;25.50;57.80;;;;;;5129078;28;20391;-66
2022/08/17 00:06:07;;;;;;;5.15;4.78;;;25.50;57.90;;;;;;5129408;27;20127;-68
2022/08/17 00:08:34;;;;;;;;;;;25.50;57.80;;;;;;5129469;28;20057;-66
2022/08/17 00:11:00;;;;;;;4.40;4.10;;;25.50;57.90;;;;;;5128734;27;19969;-66
2022/08/17 00:13:32;;;;;;;4.50;4.20;;;25.40;57.80;;;;;;5128638;28;20047;-65
2022/08/17 00:16:00;;;;;;;4.45;4.15;;;25.40;57.80;;;;;;5128554;28;20075;-66
2022/08/17 00:18:27;;;;;;;3.95;3.65;;;25.40;57.80;;;;;;5128667;28;20048;-66
2022/08/17 00:20:54;;;;;;;3.65;3.35;;;25.40;57.80;;;;;;5128831;28;20106;-66
2022/08/17 00:23:21;;;;;;;4.10;3.90;;;25.40;57.80;;;;;;5128769;28;20082;-66
2022/08/17 00:25:47;;;;;;;4.80;4.47;;;25.40;57.80;;;;;;5129814;27;20066;-66
2022/08/17 00:28:14;;;;;;;3.90;3.70;;;25.40;57.80;;;;;;5128690;28;20395;-68
2022/08/17 00:30:42;;;;;;;4.78;4.38;;;25.40;57.80;;;;;;5128691;28;20406;-66
2022/08/17 00:33:14;;;;;;;4.45;4.15;;;25.40;57.80;;;;;;5128576;28;20036;-66
2022/08/17 00:35:40;;;;;;;3.80;3.60;;;25.40;57.80;;;;;;5128300;28;20047;-66
2022/08/17 00:38:08;;;;;;;4.35;4.05;;;25.40;57.80;;;;;;5128402;28;20111;-66
2022/08/17 00:40:37;;;;;;;4.57;4.28;;;25.40;57.80;;;;;;5128253;28;20552;-66
2022/08/17 00:43:12;;;;;;;4.45;4.05;;;25.40;57.80;;;;;;5129366;27;20039;-66
2022/08/17 00:45:37;;;;;;;4.18;3.92;;;25.40;57.90;;;;;;5128137;28;20387;-66
2022/08/17 00:48:03;;;;;;;4.35;4.05;;;25.40;57.80;;;;;;5127999;28;20054;-66
2022/08/17 00:50:29;;;;;;;4.72;4.43;;;25.30;57.80;;;;;;5127923;28;20039;-66
2022/08/17 00:52:57;;;;;;;4.80;4.50;;;25.30;57.80;;;;;;5128137;28;20039;-66
2022/08/17 00:55:24;;;;;;;4.25;3.95;;;25.30;57.80;;;;;;5128805;27;20061;-66
2022/08/17 00:57:55;;;;;;;4.43;4.13;;;25.30;57.90;;;;;;5129040;27;20169;-68
2022/08/17 01:00:26;;;;;;;4.20;3.80;;;25.30;57.80;;;;;;5129022;27;20084;-66
2022/08/17 01:02:58;;;;;;;4.75;4.45;;;25.30;57.90;;;;;;5127687;28;20509;-66
2022/08/17 01:05:28;;;;;;;4.20;3.90;;;25.30;57.90;;;;;;5123828;28;20044;-66
2022/08/17 01:07:54;;;;;;;4.07;3.88;;;25.30;57.90;;;;;;5115220;28;20425;-66
2022/08/17 01:10:25;;;;;;;3.70;3.50;;;25.30;57.90;;;;;;5114011;28;20044;-66
2022/08/17 01:12:51;;;;;;;4.90;4.40;;;25.30;57.90;;;;;;5114938;28;20039;-66
2022/08/17 01:15:17;;;;;;;4.35;4.05;;;25.30;57.90;;;;;;5113778;28;20066;-66
2022/08/17 01:17:44;;;;;;;4.28;3.88;;;25.30;57.90;;;;;;5115055;28;20035;-67
2022/08/17 01:20:10;;;;;;;4.35;3.90;;;25.20;57.80;;;;;;5113616;28;20043;-66
2022/08/17 01:22:36;;;;;;;4.93;4.53;;;25.30;57.90;;;;;;5115128;28;20027;-66
2022/08/17 01:25:06;;;;;;;3.88;3.58;;;25.20;57.90;;;;;;5114820;28;20036;-66
2022/08/17 01:27:33;;;;;;;4.63;4.32;;;25.20;57.90;;;;;;5113495;28;20513;-66
2022/08/17 01:30:04;;;;;;;4.63;4.30;;;25.20;57.90;;;;;;5114806;28;20437;-66
2022/08/17 01:32:30;;;;;;;4.45;4.18;;;25.30;58.00;;;;;;5113728;28;20445;-66
2022/08/17 01:34:56;;;;;;;4.05;3.75;;;25.20;57.90;;;;;;5130497;27;20063;-66
2022/08/17 01:37:29;;;;;;;4.20;3.90;;;25.20;57.90;;;;;;5113422;28;20487;-66
2022/08/17 01:40:24;;;;;;;4.13;3.83;;;25.20;57.90;;;;;;5113519;28;20391;-66
2022/08/17 01:45:32;;;;;;;5.18;4.78;;;25.20;57.90;;;;;;5130192;27;20383;-66
2022/08/17 01:47:59;;;;;;;4.03;3.72;;;25.20;57.90;;;;;;5146157;27;20080;-66
2022/08/17 01:50:30;;;;;;;3.92;3.63;;;25.20;57.90;;;;;;5112008;28;20465;-66
2022/08/17 01:53:03;;;;;;;4.43;4.13;;;25.20;57.90;;;;;;5128802;28;20044;-66
2022/08/17 01:55:47;;;;;;;4.28;3.97;;;25.20;58.00;;;;;;5128978;28;20120;-66
2022/08/17 01:58:14;;;;;;;4.00;3.70;;;25.20;57.90;;;;;;5128685;28;20075;-66
2022/08/17 02:00:42;;;;;;;4.00;3.70;;;25.20;57.90;;;;;;5128981;28;20043;-66
2022/08/17 02:03:07;;;;;;;4.55;4.25;;;25.20;58.00;;;;;;5129134;28;20043;-66
2022/08/17 02:05:34;;;;;;;4.28;3.97;;;25.20;57.90;;;;;;5128720;28;20386;-66
2022/08/17 02:08:00;;;;;;;4.45;4.18;;;25.10;57.90;;;;;;5128613;28;20039;-68
2022/08/17 02:10:28;;;;;;;4.35;4.13;;;25.20;57.90;;;;;;5128674;28;20067;-66
2022/08/17 02:12:54;;;;;;;4.47;4.18;;;25.20;58.00;;;;;;5128763;28;20039;-66
2022/08/17 02:15:20;;;;;;;4.20;3.90;;;25.10;57.90;;;;;;5128744;28;20047;-66
2022/08/17 02:17:47;;;;;;;4.82;4.53;;;25.10;57.90;;;;;;5129642;27;20047;-66
2022/08/17 02:20:12;;;;;;;4.20;3.90;;;25.10;57.90;;;;;;5128166;28;20499;-66
2022/08/17 02:22:39;;;;;;;4.13;3.83;;;25.10;57.90;;;;;;5128566;28;20046;-66
2022/08/17 02:25:08;;;;;;;4.00;3.80;;;25.10;57.90;;;;;;5128215;27;20044;-66
2022/08/17 02:27:34;;;;;;;4.47;4.15;;;25.10;57.90;;;;;;5130038;27;20106;-66
2022/08/17 02:30:00;;;;;;;4.30;4.00;;;25.10;57.90;;;;;;5128222;28;20111;-66
2022/08/17 02:32:26;;;;;;;4.60;4.30;;;25.10;57.90;;;;;;5127984;28;20146;-66
2022/08/17 02:34:52;;;;;;;4.28;3.97;;;25.10;57.90;;;;;;5128070;27;20039;-66
2022/08/17 02:37:18;;;;;;;3.97;3.78;;;25.10;57.90;;;;;;5128343;28;20047;-66
2022/08/17 02:39:44;;;;;;;4.07;3.75;;;25.10;57.90;;;;;;5128031;28;20048;-66
2022/08/17 02:42:11;;;;;;;4.40;4.10;;;25.10;57.90;;;;;;5128184;28;20118;-66
2022/08/17 02:44:38;;;;;;;4.55;4.25;;;25.10;58.70;;;;;;5127431;28;20059;-66
2022/08/17 02:47:03;;;;;;;4.82;4.53;;;25.00;57.90;;;;;;5127802;28;20047;-66
2022/08/17 02:49:29;;;;;;;4.25;3.95;;;25.10;58.00;;;;;;5129052;28;20039;-66
2022/08/17 02:51:57;;;;;;;4.55;4.15;;;25.00;57.90;;;;;;5127741;28;20088;-66
2022/08/17 02:54:23;;;;;;;4.47;4.18;;;25.00;57.90;;;;;;5129207;27;20086;-66
2022/08/17 02:56:49;;;;;;;4.18;3.95;;;25.00;57.90;;;;;;5113872;28;20044;-66
2022/08/17 02:59:14;;;;;;;4.10;3.90;;;25.00;57.90;;;;;;5114250;28;20040;-66
2022/08/17 03:01:40;;;;;;;4.88;4.47;;;25.00;57.90;;;;;;5114165;28;20487;-66
2022/08/17 03:04:06;;;;;;;4.22;3.92;;;25.00;57.90;;;;;;5113688;28;20126;-66
2022/08/17 03:06:32;;;;;;;4.38;4.15;;;25.00;57.90;;;;;;5115095;28;20051;-66
2022/08/17 03:08:57;;;;;;;4.53;4.13;;;25.00;58.00;;;;;;5113944;28;20383;-66
2022/08/17 03:11:23;;;;;;;4.25;3.95;;;25.00;57.90;;;;;;5113896;28;20376;-66
2022/08/17 03:13:49;;;;;;;3.90;3.63;;;25.00;57.90;;;;;;5113926;28;20042;-66
2022/08/17 03:16:14;;;;;;;4.22;3.95;;;25.00;57.90;;;;;;5113680;28;20509;-66
2022/08/17 03:18:40;;;;;;;4.75;4.32;;;25.00;58.70;;;;;;5113415;28;20096;-66
2022/08/17 03:21:07;;;;;;;4.13;3.83;;;25.00;57.90;;;;;;5130850;27;20035;-66
2022/08/17 03:23:39;;;;;;;4.18;3.88;;;25.00;57.90;;;;;;5113576;28;20044;-66
2022/08/17 03:26:06;;;;;;;4.50;4.10;;;24.90;57.90;;;;;;5114911;28;20108;-67
2022/08/17 03:28:32;;;;;;;4.85;4.38;;;25.00;58.00;;;;;;5113601;28;20169;-66
2022/08/17 03:30:58;;;;;;;4.35;4.05;;;25.00;58.00;;;;;;5114616;28;20110;-66
2022/08/17 03:33:24;;;;;;;4.35;4.05;;;24.90;57.90;;;;;;5096233;28;20186;-66
2022/08/17 03:35:50;;;;;;;4.35;3.97;;;24.90;58.00;;;;;;5114516;28;20627;-66
2022/08/17 03:38:17;;;;;;;4.07;3.78;;;24.90;58.00;;;;;;5113427;28;20040;-66
2022/08/17 03:40:45;;;;;;;4.18;3.97;;;24.90;58.00;;;;;;5113139;28;20050;-66
2022/08/17 03:43:11;;;;;;;4.38;4.07;;;24.90;58.00;;;;;;5112821;28;20039;-68
2022/08/17 03:56:57;;;;;;;4.00;3.70;;;24.90;58.00;;;;;;5112802;28;20105;-66
2022/08/17 03:59:23;;;;;;;3.80;3.60;;;24.90;58.00;;;;;;5113059;28;20044;-68
2022/08/17 04:01:52;;;;;;;4.25;3.95;;;24.90;58.00;;;;;;5112714;28;20487;-66
2022/08/17 04:04:18;;;;;;;4.80;4.50;;;24.90;58.00;;;;;;5113942;28;20044;-68
2022/08/17 04:06:44;;;;;;;4.03;3.80;;;24.90;58.00;;;;;;5111853;28;20502;-66
2022/08/17 04:09:10;;;;;;;4.20;3.90;;;24.90;58.10;;;;;;5112260;28;20092;-66
2022/08/17 04:11:36;;;;;;;5.20;4.80;;;24.90;58.00;;;;;;5112570;28;20040;-66
2022/08/17 04:14:03;;;;;;;4.00;3.70;;;24.90;58.10;;;;;;5129646;27;20080;-67
2022/08/17 04:16:29;;;;;;;4.03;3.72;;;24.90;58.10;;;;;;5114022;28;20039;-68
2022/08/17 04:18:55;;;;;;;4.70;4.32;;;24.90;58.10;;;;;;5113760;28;20092;-69
2022/08/17 04:21:21;;;;;;;4.18;3.88;;;24.90;58.10;;;;;;5113659;28;20041;-68
2022/08/17 04:23:47;;;;;;;3.95;3.75;;;24.90;58.10;;;;;;5112472;28;20040;-68
2022/08/17 04:26:13;;;;;;;4.80;4.40;;;24.90;58.20;;;;;;5113418;28;20039;-69
2022/08/17 04:28:40;;;;;;;4.07;3.78;;;24.90;58.20;;;;;;5112446;28;20417;-68
2022/08/17 04:31:08;;;;;;;4.07;3.70;;;24.90;58.20;;;;;;5112367;28;20047;-67
2022/08/17 04:33:34;;;;;;;4.50;4.22;;;24.90;58.30;;;;;;5112419;28;20368;-70
2022/08/17 04:36:01;;;;;;;5.18;4.32;;;24.90;58.30;;;;;;5129180;27;20050;-70
2022/08/17 04:38:31;;;;;;;4.72;4.43;;;24.80;58.30;;;;;;5112482;28;20134;-67
2022/08/17 04:43:46;;;;;;;4.82;4.53;;;24.80;58.30;;;;;;5111580;28;20439;-67
2022/08/17 04:46:14;;;;;;;4.55;4.25;;;24.80;58.40;;;;;;5111857;28;20044;-67
2022/08/17 04:48:43;;;;;;;4.70;4.35;;;24.80;58.40;;;;;;5112135;28;20395;-67
2022/08/17 04:51:13;;;;;;;4.78;4.45;;;24.80;58.50;;;;;;5111869;28;20035;-67
2022/08/17 04:53:40;;;;;;;4.47;4.10;;;24.80;58.50;;;;;;5112048;28;20054;-67
2022/08/17 04:56:07;;;;;;;4.43;4.13;;;24.80;58.50;;;;;;5111861;28;20047;-67
2022/08/17 04:58:33;;;;;;;4.63;4.22;;;24.80;58.60;;;;;;5111893;28;20039;-67
2022/08/17 05:00:59;;;;;;;3.88;3.67;;;24.80;58.60;;;;;;5111984;28;20043;-67
2022/08/17 05:03:24;;;;;;;4.95;4.55;;;24.80;58.60;;;;;;5111494;28;20077;-67
2022/08/17 05:05:50;;;;;;;4.50;4.15;;;24.80;58.60;;;;;;5111439;28;20039;-68
2022/08/17 05:08:18;;;;;;;4.93;4.57;;;24.80;58.60;;;;;;5112643;28;20039;-67
2022/08/17 05:10:45;;;;;;;4.25;3.88;;;24.80;58.70;;;;;;5111690;28;20035;-67
2022/08/17 05:13:15;;;;;;;4.40;4.10;;;24.80;58.70;;;;;;5111717;28;20491;-67
2022/08/17 05:15:42;;;;;;;4.22;3.92;;;24.80;58.70;;;;;;5111516;28;20044;-67
2022/08/17 05:18:09;;;;;;;4.75;4.25;;;24.80;58.80;;;;;;5112519;28;20110;-69
2022/08/17 05:20:36;;;;;;;4.82;4.43;;;24.80;58.80;;;;;;5111481;28;20035;-67
2022/08/17 05:23:06;;;;;;;4.63;4.32;;;24.80;58.80;;;;;;5112754;28;20051;-67
2022/08/17 05:25:36;;;;;;;4.65;4.32;;;24.80;58.80;;;;;;5111209;28;20043;-67
2022/08/17 05:28:02;;;;;;;4.30;4.00;;;24.80;58.90;;;;;;5111185;28;20040;-67
2022/08/17 05:30:28;;;;;;;4.57;4.20;;;24.80;58.90;;;;;;5112532;28;20043;-67
2022/08/17 05:32:59;;;;;;;4.20;3.90;;;24.80;58.90;;;;;;5111386;28;20493;-67
2022/08/17 05:35:26;;;;;;;4.60;4.30;;;24.80;58.90;;;;;;5111055;28;20491;-67
2022/08/17 05:37:52;;;;;;;4.32;4.03;;;24.70;59.00;;;;;;5110996;28;20058;-67
2022/08/17 05:40:20;;;;;;;3.95;3.75;;;24.80;58.90;;;;;;5111119;28;20051;-69
2022/08/17 05:42:47;;;;;;;4.25;3.95;;;24.70;58.90;;;;;;5112228;28;20071;-67
2022/08/17 05:45:14;;;;;;;4.93;4.60;;;24.80;58.90;;;;;;5110730;28;20056;-67
2022/08/17 05:47:42;;;;;;;4.40;4.10;;;24.80;58.90;;;;;;5111111;28;20088;-67
2022/08/17 05:50:10;;;;;;;4.63;4.32;;;24.80;58.90;;;;;;5112184;28;20078;-67
2022/08/17 05:56:09;;;;;;;4.32;3.92;;;24.70;58.90;;;;;;5130178;27;20387;-67
2022/08/17 06:04:34;;;;;;;4.55;4.25;;;24.80;59.10;;;;;;5130352;27;20399;-67
2022/08/17 06:07:25;;;;;;;4.55;4.15;;;24.80;59.10;;;;;;5128695;27;20122;-67
2022/08/17 06:10:08;;;;;;;4.70;4.40;;;24.80;59.10;;;;;;5146373;27;20047;-68
2022/08/17 06:13:14;;;;;;;5.22;4.93;;;24.80;59.10;;;;;;5130100;27;20122;-67
2022/08/17 06:18:27;;;;;;;4.15;3.78;;;24.70;59.10;;;;;;5089363;28;20401;-67
2022/08/17 06:20:57;;;;;;;4.78;4.38;;;24.70;59.10;;;;;;5088352;28;20044;-67
2022/08/17 06:23:40;;;;;;;5.57;5.18;;;24.80;59.20;;;;;;5088264;28;20037;-67
2022/08/17 06:26:19;;;;;;;4.95;4.55;;;24.80;59.20;;;;;;5088310;28;20072;-67
2022/08/17 06:28:52;;;;;;;4.15;3.88;;;24.80;59.20;;;;;;5088253;28;20052;-67
2022/08/17 06:31:22;;;;;;;4.43;4.10;;;24.80;59.10;;;;;;5088230;28;20448;-67
2022/08/17 06:33:49;;;;;;;4.57;4.17;;;24.70;59.10;;;;;;5089226;28;20446;-67
2022/08/17 06:42:39;;;;;;;4.28;3.97;;;24.80;59.20;;;;;;5130312;27;20407;-66
2022/08/17 06:45:13;;;;;;;4.38;4.07;;;24.80;59.10;;;;;;5128653;27;20507;-67
2022/08/17 06:48:04;;;;;;;4.65;4.30;;;24.70;59.10;;;;;;5146120;27;20110;-67
2022/08/17 06:58:32;;;;;;;4.50;4.20;;;24.80;59.20;;;;;;5130300;27;20383;-66
2022/08/17 07:01:07;;;;;;;4.50;4.20;;;24.80;59.10;;;;;;5129226;28;20104;-67
2022/08/17 07:03:39;;;;;;;4.60;4.30;;;24.80;59.10;;;;;;5128889;28;20119;-67
2022/08/17 07:06:13;;;;;;;4.60;4.30;;;24.80;59.10;;;;;;5129192;28;20442;-67
2022/08/17 07:11:36;;;;;;;4.63;4.30;;;24.80;59.10;;;;;;5130373;27;20415;-66
2022/08/17 07:16:55;;;;;;;4.00;3.70;;;24.80;59.10;;;;;;5089454;28;20425;-66
2022/08/17 07:19:24;;;;;;;4.10;3.80;;;24.80;59.10;;;;;;5088104;28;20036;-67
2022/08/17 07:30:05;;;;;;;6.57;4.35;;;24.80;59.10;;;;;;5088146;27;20867;-65
2022/08/17 07:32:35;;;;;;;4.57;4.18;;;24.80;59.20;;;;;;5087990;28;20036;-66
2022/08/17 07:37:43;;;;;;;3.85;3.20;;;24.80;59.30;;;;;;5130286;27;20430;-67
2022/08/17 07:40:16;;;;;;;4.68;3.70;;;24.90;59.50;;;;;;5128949;28;20039;-67
2022/08/17 07:43:02;;;;;;;4.45;3.63;;;24.90;59.50;;;;;;5128698;28;20039;-67
2022/08/17 07:48:20;;;;;;;5.25;3.70;;;25.00;59.40;;;;;;5127234;28;20137;-69
2022/08/17 07:50:47;;;;;;;3.85;3.22;;;25.00;59.60;;;;;;5127606;28;20043;-69
2022/08/17 07:53:19;;;;;;;4.57;3.75;;;25.00;59.60;;;;;;5130078;27;20050;-69
2022/08/17 07:55:45;;;;;;;6.60;3.65;;;25.00;59.60;;;;;;5128412;27;20065;-68
2022/08/17 07:58:25;;;;;;;3.83;3.38;;;24.90;59.50;;;;;;5128652;28;20040;-69
2022/08/17 08:01:14;;;;;;;3.80;3.50;;;25.00;59.50;;;;;;5129939;28;20043;-69
2022/08/17 08:03:43;;;;;;;5.35;3.60;;;25.00;59.60;;;;;;5128786;28;20047;-69
2022/08/17 08:06:25;;;;;;;3.60;3.25;;;25.00;59.60;;;;;;5129717;27;20058;-69
2022/08/17 08:08:54;;;;;;;4.03;3.65;;;25.00;59.60;;;;;;5128622;28;20066;-69
2022/08/17 08:11:38;;;;;;;3.58;3.28;;;25.00;59.50;;;;;;5128279;28;20035;-69
2022/08/17 08:14:32;;;;;;;3.63;3.30;;;24.90;59.40;;;;;;5128572;28;20420;-69
2022/08/17 08:17:01;;;;;;;3.55;3.10;;;25.00;59.50;;;;;;5128036;28;20122;-68
2022/08/17 08:19:29;;;;;;;3.80;3.50;;;24.90;59.40;;;;;;5128460;27;20097;-69
2022/08/17 08:22:06;;;;;;;4.63;3.70;;;24.90;59.40;;;;;;5128185;28;20046;-69
2022/08/17 08:30:17;;;;;;;3.65;3.30;;;24.90;59.40;;;;;;5109792;27;20764;-69
2022/08/17 08:57:17;;;;;;;4.25;3.85;;;24.90;59.40;;;;;;5150888;27;20118;-69
2022/08/17 09:11:20;;;;;;;3.70;3.33;;;24.90;59.40;;;;;;5089506;27;20363;-69
2022/08/17 09:14:11;;;;;;;3.50;3.30;;;24.90;59.40;;;;;;5088030;28;20071;-69
2022/08/17 09:16:49;;;;;;;4.10;3.70;;;24.90;59.40;;;;;;5105157;28;20036;-68
2022/08/17 09:19:28;;;;;;;3.83;3.53;;;24.90;59.40;;;;;;5087981;28;20127;-69
2022/08/17 09:22:00;;;;;;;3.55;3.25;;;24.90;59.40;;;;;;5105523;28;20044;-68
2022/08/17 09:24:38;;;;;;;3.33;3.08;;;24.90;59.40;;;;;;5087860;28;20075;-69
2022/08/17 09:27:14;;;;;;;3.88;3.60;;;24.90;59.40;;;;;;5087873;28;20090;-68
2022/08/17 09:29:47;;;;;;;3.75;3.30;;;24.90;59.40;;;;;;5089010;28;20135;-68
2022/08/17 09:32:20;;;;;;;3.60;3.30;;;24.90;59.40;;;;;;5087818;28;20522;-68
2022/08/17 09:34:53;;;;;;;4.10;3.80;;;24.90;59.40;;;;;;5088886;28;20537;-68
2022/08/17 09:37:26;;;;;;;3.88;3.58;;;24.90;59.30;;;;;;5088003;28;20059;-69
2022/08/17 09:40:29;;;;;;;3.72;3.42;;;24.90;59.30;;;;;;5088988;28;20044;-68
2022/08/17 09:43:19;;;;;;;3.53;3.22;;;24.90;59.30;;;;;;5088615;28;20094;-68
2022/08/17 09:45:50;;;;;;;3.70;3.50;;;24.90;59.30;;;;;;5104201;28;20044;-68
2022/08/17 09:48:23;;;;;;;3.30;3.10;;;24.90;59.20;;;;;;5087502;28;20044;-68
2022/08/17 09:53:30;;;;;;;3.60;3.30;;;24.90;59.20;;;;;;5130358;27;20374;-68
2022/08/17 09:56:12;;;;;;;4.07;3.78;;;24.90;59.20;;;;;;5128870;28;20043;-68
2022/08/17 10:01:35;;;;;;;3.28;3.08;;;24.90;59.20;;;;;;5130162;27;20294;-68
2022/08/17 10:12:23;;;;;;;3.53;3.25;;;24.90;59.10;;;;;;5130343;27;20345;-68
2022/08/17 10:15:21;;;;;;;3.47;3.28;;;25.00;59.10;;;;;;5130638;27;20089;-68
2022/08/17 10:26:21;;;;;;;3.28;3.08;;;25.00;59.00;;;;;;5152972;27;20358;-68
2022/08/17 10:31:40;;;;;;;3.22;3.03;;;25.00;58.90;;;;;;5130199;27;20431;-68
2022/08/17 10:43:26;;;;;;;3.83;3.53;;;25.10;58.80;;;;;;5089402;27;20360;-69
2022/08/17 10:46:01;;;;;;;3.17;2.88;;;25.10;58.80;;;;;;5088176;28;20511;-68
2022/08/17 10:48:35;;;;;;;3.58;3.13;;;25.10;58.80;;;;;;5088177;28;20032;-69
2022/08/17 10:56:22;;;;;;;3.28;3.05;;;25.10;58.80;;;;;;5130264;27;20406;-69
2022/08/17 11:04:34;;;;;;;3.35;3.05;;;25.10;58.70;;;;;;5130360;27;20918;-69
2022/08/17 11:10:27;;;;;;;3.40;3.10;;;25.10;58.80;;;;;;5110317;27;20300;-69
2022/08/17 11:16:26;;;;;;;3.65;3.45;;;25.10;58.70;;;;;;5109833;27;20354;-68
2022/08/17 11:22:21;;;;;;;3.40;3.20;;;25.10;58.70;;;;;;5130124;27;20357;-69
2022/08/17 11:24:50;;;;;;;2.72;2.53;;;25.10;58.70;;;;;;5128849;28;20055;-68
2022/08/17 11:27:35;;;;;;;3.25;3.05;;;25.10;58.80;;;;;;5146490;27;20046;-69
2022/08/17 11:30:06;;;;;;;3.58;3.28;;;25.10;58.70;;;;;;5128702;27;20398;-69
2022/08/17 11:32:37;;;;;;;3.72;3.42;;;25.10;58.80;;;;;;5128771;27;20047;-68
2022/08/17 11:35:27;;;;;;;3.55;3.35;;;25.10;58.80;;;;;;5128687;28;20069;-69
2022/08/17 11:38:32;;;;;;;3.70;3.40;;;25.10;58.80;;;;;;5128979;28;20042;-68
2022/08/17 11:52:34;;;;;;;3.42;3.22;;;25.10;58.80;;;;;;5128779;27;20046;-68
2022/08/17 11:54:59;;;;;;;3.60;3.30;;;25.00;58.70;;;;;;5146159;27;20035;-68
2022/08/17 12:00:10;;;;;;;3.53;3.33;;;25.00;58.80;;;;;;5130342;27;20440;-68
2022/08/17 12:02:42;;;;;;;3.30;3.10;;;25.10;58.80;;;;;;5129319;28;20092;-69
2022/08/17 12:08:14;;;;;;;2.65;2.45;;;25.10;58.80;;;;;;5130295;27;20399;-68
2022/08/17 12:13:41;;;;;;;3.50;3.22;;;25.00;58.80;;;;;;5130375;27;20905;-69
2022/08/17 12:16:08;;;;;;;3.50;3.30;;;25.10;58.70;;;;;;5129021;27;20035;-68
2022/08/17 12:18:38;;;;;;;3.08;2.88;;;25.10;58.80;;;;;;5128800;28;20043;-69
2022/08/17 12:23:56;;;;;;;3.13;2.80;;;25.00;58.70;;;;;;5130384;27;20391;-68
2022/08/17 12:26:29;;;;;;;3.00;2.80;;;25.00;58.70;;;;;;5128959;28;20043;-69
2022/08/17 12:29:02;;;;;;;2.85;2.65;;;25.10;58.80;;;;;;5129221;27;20614;-68
2022/08/17 12:31:33;;;;;;;3.30;3.10;;;25.00;58.70;;;;;;5128749;28;20039;-68
2022/08/17 12:34:00;;;;;;;3.13;2.92;;;25.10;58.80;;;;;;5129166;28;20410;-68
2022/08/17 12:36:27;;;;;;;3.47;3.28;;;25.10;58.80;;;;;;5128781;28;20040;-68
2022/08/17 12:39:01;;;;;;;3.60;3.30;;;25.00;58.70;;;;;;5129063;28;20092;-68
2022/08/17 12:49:34;;;;;;;3.07;2.87;;;25.10;58.80;;;;;;5152777;27;1169472;-68
2022/08/17 12:54:54;;;;;;;3.45;3.25;;;25.10;58.80;;;;;;5130334;27;20748;-68
2022/08/17 13:00:20;;;;;;;3.50;3.30;;;25.10;58.80;;;;;;5153034;27;1161686;-68
2022/08/17 13:02:51;;;;;;;3.47;3.20;;;25.10;58.80;;;;;;5153030;27;20280;-68
2022/08/17 13:05:33;;;;;;;3.10;2.90;;;25.10;58.80;;;;;;5171943;27;20439;-69
2022/08/17 13:07:59;;;;;;;3.30;3.10;;;25.10;58.90;;;;;;5152874;27;20066;-68
2022/08/17 13:10:31;;;;;;;3.58;3.28;;;25.10;58.90;;;;;;5152910;27;20070;-69
2022/08/17 13:13:02;;;;;;;3.95;3.63;;;25.00;58.90;;;;;;5153114;27;20051;-69
2022/08/17 13:15:40;;;;;;;3.10;2.90;;;25.10;58.90;;;;;;5152806;27;20050;-68
2022/08/17 13:18:29;;;;;;;3.30;3.10;;;25.10;58.90;;;;;;5152616;27;20088;-68
2022/08/17 13:20:57;;;;;;;3.45;3.25;;;25.10;59.00;;;;;;5152569;27;20062;-68
2022/08/17 13:23:25;;;;;;;3.47;3.28;;;25.10;58.90;;;;;;5152934;27;20362;-68
2022/08/17 13:26:04;;;;;;;3.20;3.00;;;25.10;58.90;;;;;;5171279;27;20453;-69
2022/08/17 13:28:31;;;;;;;3.80;3.60;;;25.10;58.90;;;;;;5171191;27;20110;-69
2022/08/17 13:31:36;;;;;;;3.53;3.33;;;25.10;58.90;;;;;;5152877;27;20125;-68
2022/08/17 13:51:04;;;;;;;3.75;3.55;;;25.10;59.00;;;;;;5089552;27;20409;-69
2022/08/17 13:56:22;;;;;;;4.32;3.95;;;25.10;59.20;;;;;;5130244;27;20386;-71
2022/08/17 13:58:56;;;;;;;4.40;4.10;;;25.10;59.40;;;;;;5128883;27;20491;-71
2022/08/17 14:04:14;;;;;;;3.58;3.30;;;25.00;59.20;;;;;;5130483;27;20411;-71
2022/08/17 14:09:58;;;;;;;3.03;2.83;;;25.10;59.10;;;;;;5130211;27;20354;-70
2022/08/17 14:12:26;;;;;;;4.40;4.10;;;25.10;59.20;;;;;;5129010;28;20055;-69
2022/08/17 14:14:53;;;;;;;3.25;3.00;;;25.10;59.20;;;;;;5146097;27;20362;-70
2022/08/17 14:17:21;;;;;;;3.55;3.35;;;25.10;59.10;;;;;;5129402;28;20035;-68
2022/08/17 14:19:48;;;;;;;3.72;3.53;;;25.10;59.10;;;;;;5128923;28;20038;-69
2022/08/17 14:22:22;;;;;;;3.90;3.60;;;25.00;59.00;;;;;;5128867;28;20047;-69
2022/08/17 14:24:50;;;;;;;3.47;3.28;;;25.10;59.10;;;;;;5128770;28;20043;-69
2022/08/17 14:27:18;;;;;;;3.95;3.65;;;25.10;59.10;;;;;;5128687;28;20035;-69
2022/08/17 14:29:43;;;;;;;3.10;2.90;;;25.00;59.00;;;;;;5128549;28;20043;-69
2022/08/17 14:32:18;;;;;;;3.63;3.33;;;25.00;59.00;;;;;;5128627;28;20036;-69
2022/08/17 14:34:45;;;;;;;3.65;3.35;;;25.10;59.00;;;;;;5128772;28;20065;-70
2022/08/17 14:37:11;;;;;;;3.65;3.42;;;25.10;59.10;;;;;;5128541;28;20502;-69
2022/08/17 14:39:37;;;;;;;3.40;3.20;;;25.10;59.10;;;;;;5128658;28;20069;-69
2022/08/17 14:42:03;;;;;;;3.25;2.95;;;25.00;59.00;;;;;;5128572;28;20043;-69
2022/08/17 14:44:29;;;;;;;3.33;3.10;;;25.10;59.10;;;;;;5129687;27;20047;-71
2022/08/17 14:46:54;;;;;;;3.05;2.85;;;25.10;59.10;;;;;;5128325;28;20051;-69
2022/08/17 14:49:20;;;;;;;2.92;2.72;;;25.00;59.00;;;;;;5129436;27;20040;-69
2022/08/17 14:51:46;;;;;;;3.88;3.58;;;25.10;59.10;;;;;;5129446;28;20136;-69
2022/08/17 14:54:12;;;;;;;3.70;3.50;;;25.10;59.20;;;;;;5145450;27;20097;-69
2022/08/17 14:56:38;;;;;;;3.40;3.20;;;25.00;59.20;;;;;;5128304;28;20169;-69
2022/08/17 14:59:04;;;;;;;3.35;3.15;;;25.00;59.20;;;;;;5129408;27;20500;-69
2022/08/17 15:01:30;;;;;;;3.30;3.10;;;25.00;59.20;;;;;;5127968;28;20062;-70
2022/08/17 15:03:56;;;;;;;4.53;4.22;;;25.00;59.30;;;;;;5128207;28;20071;-69
2022/08/17 15:06:23;;;;;;;3.80;3.50;;;25.00;59.30;;;;;;5127863;28;20074;-69
2022/08/17 15:08:49;;;;;;;3.53;3.25;;;25.00;59.30;;;;;;5129051;27;20051;-68
2022/08/17 15:11:15;;;;;;;3.97;3.78;;;25.00;59.40;;;;;;5127842;28;20398;-69
2022/08/17 15:13:41;;;;;;;3.05;2.85;;;25.00;59.40;;;;;;5145041;27;20045;-69
2022/08/17 15:16:07;;;;;;;3.58;3.28;;;25.00;59.50;;;;;;5127727;27;20054;-69
2022/08/17 15:18:34;;;;;;;3.90;3.60;;;25.00;59.60;;;;;;5128002;28;20065;-69
2022/08/17 15:21:03;;;;;;;3.63;3.42;;;25.10;59.70;;;;;;5115157;28;20062;-69
2022/08/17 15:23:28;;;;;;;3.88;3.58;;;25.00;59.70;;;;;;5115198;28;20454;-69
2022/08/17 15:25:54;;;;;;;3.72;3.42;;;25.10;59.80;;;;;;5096873;28;20119;-69
2022/08/17 15:28:23;;;;;;;3.45;3.25;;;25.00;59.80;;;;;;5113833;28;20142;-70
2022/08/17 15:30:50;;;;;;;3.78;3.58;;;25.00;59.90;;;;;;5113800;28;20105;-69
2022/08/17 15:33:20;;;;;;;4.20;3.90;;;25.00;60.00;;;;;;5114090;28;20118;-69
2022/08/17 15:35:49;;;;;;;4.15;3.75;;;25.00;60.00;;;;;;5113683;28;20039;-69
2022/08/17 15:38:15;;;;;;;3.88;3.60;;;25.00;60.10;;;;;;5113723;28;20039;-69
2022/08/17 15:40:46;;;;;;;3.45;3.25;;;25.00;60.20;;;;;;5115155;28;20039;-70
2022/08/17 15:43:15;;;;;;;3.83;3.53;;;25.00;60.30;;;;;;5114864;28;20035;-70
2022/08/17 15:45:41;;;;;;;4.18;3.88;;;25.00;60.40;;;;;;5113710;28;20479;-71
2022/08/17 15:48:07;;;;;;;3.58;3.38;;;25.00;60.50;;;;;;5113298;28;20118;-69
2022/08/17 15:50:33;;;;;;;5.07;3.80;;;25.00;60.60;;;;;;5113474;28;20117;-68
2022/08/17 15:53:01;;;;;;;4.28;3.97;;;24.90;60.60;;;;;;5113574;28;20047;-69
2022/08/17 15:55:29;;;;;;;4.35;3.95;;;25.00;60.80;;;;;;5114589;28;20483;-68
2022/08/17 15:57:55;;;;;;;3.95;3.67;;;25.00;60.90;;;;;;5113230;28;20092;-69
2022/08/17 16:00:22;;;;;;;4.53;4.22;;;25.00;60.90;;;;;;5113395;28;20126;-69
2022/08/17 16:02:49;;;;;;;4.35;3.95;;;25.00;61.00;;;;;;5113194;28;20059;-67
2022/08/17 16:05:20;;;;;;;3.65;3.45;;;24.90;61.00;;;;;;5113628;28;20039;-68
2022/08/17 16:07:46;;;;;;;3.67;3.38;;;24.90;61.00;;;;;;5112741;28;20506;-69
2022/08/17 16:10:13;;;;;;;3.70;3.40;;;24.90;61.10;;;;;;5114387;28;20122;-69
2022/08/17 16:12:38;;;;;;;3.97;3.67;;;24.90;61.10;;;;;;5112967;28;20039;-68
2022/08/17 16:15:05;;;;;;;3.65;3.42;;;24.90;61.20;;;;;;5113215;28;20039;-68
2022/08/17 16:17:31;;;;;;;3.63;3.35;;;24.90;61.20;;;;;;5112843;28;20118;-69
2022/08/17 16:19:57;;;;;;;3.67;3.08;;;24.90;61.30;;;;;;5114057;28;20111;-69
2022/08/17 16:22:40;;;;;;;3.95;3.63;;;24.90;61.30;;;;;;5112969;28;20050;-68
2022/08/17 16:25:12;;;;;;;3.38;3.08;;;24.90;61.40;;;;;;5114261;28;20044;-68
2022/08/17 16:27:38;;;;;;;3.58;3.38;;;24.90;61.50;;;;;;5112825;28;20051;-68
2022/08/17 16:30:06;;;;;;;3.95;3.65;;;24.90;61.50;;;;;;5112942;28;20376;-69
2022/08/17 16:32:32;;;;;;;3.67;3.35;;;24.90;61.50;;;;;;5112888;28;20036;-69
2022/08/17 16:35:04;;;;;;;3.50;3.30;;;24.90;61.60;;;;;;5113661;28;20027;-70
2022/08/17 16:37:30;;;;;;;3.55;3.35;;;24.80;61.60;;;;;;5117220;28;20048;-70
2022/08/17 16:39:56;;;;;;;3.55;3.25;;;24.80;61.60;;;;;;5112481;28;20525;-70
2022/08/17 16:42:24;;;;;;;3.40;3.10;;;24.80;61.60;;;;;;5112688;28;20418;-70
2022/08/17 16:44:52;;;;;;;3.63;3.35;;;24.80;62.00;;;;;;5095550;28;20039;-70